Time;durP1;ratioP1;P1;durP2;ratioP2;P2;SDS_P1;SDS_P2;PMS_P1;PMS_P2;Temp;Humidity;BMP_temperature;BMP_pressure;BME280_temperature;BME280_humidity;BME280_pressure;Samples;Min_cycle;Max_cycle;Signal;HPM_P1;HPM_P2
2021/06/10 00:00:42;;;;;;;0.40;0.40;;;;;;;-144.31;67.86;75166.19;5000034;28;20599;-71
2021/06/10 00:03:08;;;;;;;0.47;0.47;;;;;;;-144.31;67.87;75164.19;5000104;28;20210;-72
2021/06/10 00:05:36;;;;;;;0.40;0.40;;;;;;;-144.31;67.87;75166.19;4985389;28;20543;-72
2021/06/10 00:08:02;;;;;;;0.50;0.50;;;;;;;-144.31;67.88;75170.16;5002813;28;20046;-71
2021/06/10 00:10:30;;;;;;;0.50;0.50;;;;;;;-144.31;67.88;75174.16;5003931;28;20044;-72
2021/06/10 00:12:56;;;;;;;0.40;0.40;;;;;;;-144.31;67.88;75160.19;5004903;28;20140;-72
2021/06/10 00:15:29;;;;;;;0.45;0.45;;;;;;;-144.31;67.88;75154.19;5001819;28;20160;-71
2021/06/10 00:17:55;;;;;;;0.50;0.50;;;;;;;-144.31;67.90;75158.19;5004772;28;20488;-72
2021/06/10 00:20:22;;;;;;;0.50;0.50;;;;;;;-144.31;67.91;75158.19;5006717;28;20126;-73
2021/06/10 00:22:48;;;;;;;;;;;;;;;-144.31;67.91;75160.19;5007194;28;20404;-71
2021/06/10 00:25:14;;;;;;;0.50;0.50;;;;;;;-144.31;67.91;75162.19;5006114;28;19924;-71
2021/06/10 00:27:40;;;;;;;0.52;0.52;;;;;;;-144.31;67.94;75158.19;5006484;28;20046;-71
2021/06/10 00:30:15;;;;;;;0.50;0.50;;;;;;;-144.31;67.93;75152.19;5014255;28;20034;-71
2021/06/10 00:32:41;;;;;;;0.40;0.40;;;;;;;-144.31;67.93;75156.19;5002474;28;20061;-71
2021/06/10 00:35:10;;;;;;;0.40;0.40;;;;;;;-144.31;67.94;75162.19;4990341;28;20137;-71
2021/06/10 00:37:36;;;;;;;0.50;0.50;;;;;;;-144.31;67.94;75162.19;5005420;28;20507;-71
2021/06/10 00:40:06;;;;;;;0.50;0.50;;;;;;;-144.31;67.95;75160.19;5012566;28;20037;-71
2021/06/10 00:42:32;;;;;;;0.60;0.60;;;;;;;-144.31;67.96;75166.19;5014287;28;20057;-71
2021/06/10 00:44:57;;;;;;;0.70;0.70;;;;;;;-144.31;67.97;75182.16;5004939;28;20057;-72
2021/06/10 00:47:23;;;;;;;0.50;0.50;;;;;;;-144.31;67.97;75190.13;5000496;28;20128;-72
2021/06/10 00:49:48;;;;;;;0.50;0.50;;;;;;;-144.31;67.99;75192.13;5020723;28;20532;-72
2021/06/10 00:52:14;;;;;;;0.50;0.50;;;;;;;-144.31;68.00;75198.13;5002835;28;20046;-71
2021/06/10 00:54:39;;;;;;;0.50;0.50;;;;;;;-144.31;67.97;75192.13;5002871;28;20065;-71
2021/06/10 00:57:06;;;;;;;0.50;0.50;;;;;;;-144.31;68.02;75190.13;5000060;28;20042;-72
2021/06/10 00:59:34;;;;;;;0.50;0.50;;;;;;;-144.31;68.01;75188.16;5005365;28;20056;-72
2021/06/10 01:01:59;;;;;;;0.50;0.50;;;;;;;-144.31;67.99;75186.16;5012498;28;20326;-72
2021/06/10 01:04:26;;;;;;;0.50;0.50;;;;;;;-144.31;68.02;75190.13;5006275;28;20081;-72
2021/06/10 01:07:20;;;;;;;0.50;0.50;;;;;;;-144.31;68.02;75184.16;5001303;28;20042;-71
2021/06/10 01:09:59;;;;;;;0.55;0.55;;;;;;;-144.31;68.04;75186.16;4999401;28;20099;-72
2021/06/10 01:12:46;;;;;;;0.50;0.50;;;;;;;-144.31;68.03;75184.16;5005670;28;20102;-72
2021/06/10 01:15:14;;;;;;;0.57;0.57;;;;;;;-144.31;68.05;75182.16;5011713;28;20038;-72
2021/06/10 01:17:46;;;;;;;0.65;0.65;;;;;;;-144.31;68.03;75178.16;5000954;28;20048;-72
2021/06/10 01:20:14;;;;;;;0.60;0.60;;;;;;;-144.31;68.05;75182.16;5002799;28;20207;-72
2021/06/10 01:22:48;;;;;;;0.57;0.57;;;;;;;-144.31;68.05;75184.16;5002384;28;20037;-72
2021/06/10 01:25:33;;;;;;;0.50;0.50;;;;;;;-144.31;68.05;75186.16;5006162;28;20041;-72
2021/06/10 01:28:07;;;;;;;0.50;0.50;;;;;;;-144.31;68.07;75188.16;5006576;28;20045;-72
2021/06/10 01:30:36;;;;;;;0.50;0.50;;;;;;;-144.31;68.10;75192.13;5006152;28;20156;-72
2021/06/10 01:33:39;;;;;;;0.60;0.60;;;;;;;-144.31;68.08;75194.13;5007150;28;20087;-72
2021/06/10 01:36:11;;;;;;;0.50;0.50;;;;;;;-144.31;68.11;75196.13;4958912;28;20098;-71
2021/06/10 01:38:39;;;;;;;0.50;0.50;;;;;;;-144.31;68.12;75198.13;4995059;28;20339;-72
2021/06/10 01:41:05;;;;;;;0.60;0.60;;;;;;;-144.31;68.13;75196.13;5003784;28;20491;-72
2021/06/10 01:43:35;;;;;;;0.40;0.40;;;;;;;-144.31;68.12;75186.16;5000479;28;20048;-72
2021/06/10 01:46:02;;;;;;;0.70;0.70;;;;;;;-144.31;68.13;75190.13;5004299;28;20073;-72
2021/06/10 01:48:28;;;;;;;0.50;0.50;;;;;;;-144.31;68.13;75196.13;5000590;28;20637;-73
2021/06/10 01:50:59;;;;;;;0.45;0.45;;;;;;;-144.31;68.16;75188.16;5005414;28;20041;-72
2021/06/10 01:53:25;;;;;;;0.60;0.60;;;;;;;-144.31;68.16;75186.16;5003694;28;20049;-72
2021/06/10 01:55:53;;;;;;;0.50;0.50;;;;;;;-144.31;68.16;75190.13;5005307;28;20045;-72
2021/06/10 01:58:20;;;;;;;0.50;0.50;;;;;;;-144.31;68.19;75188.16;5003439;28;20054;-72
2021/06/10 02:00:48;;;;;;;0.50;0.50;;;;;;;-144.31;68.20;75190.13;5010062;28;20049;-72
2021/06/10 02:03:15;;;;;;;0.50;0.50;;;;;;;-144.31;68.20;75202.13;5005170;28;20471;-72
2021/06/10 02:05:41;;;;;;;0.50;0.50;;;;;;;-144.31;68.21;75200.13;5004400;28;20086;-72
2021/06/10 02:08:13;;;;;;;0.45;0.45;;;;;;;-144.31;68.21;75202.13;5005957;28;20280;-72
2021/06/10 02:10:41;;;;;;;0.60;0.60;;;;;;;-144.31;68.23;75210.13;4995277;28;20487;-72
2021/06/10 02:13:07;;;;;;;0.40;0.40;;;;;;;-144.31;68.24;75206.13;5005691;28;20052;-72
2021/06/10 02:15:35;;;;;;;0.50;0.50;;;;;;;-144.31;68.24;75214.09;5002615;28;20056;-71
2021/06/10 02:18:04;;;;;;;0.50;0.50;;;;;;;-144.31;68.25;75218.09;4996123;28;20037;-71
2021/06/10 02:20:30;;;;;;;0.50;0.50;;;;;;;-144.31;68.28;75230.09;5003815;28;20045;-72
2021/06/10 02:22:55;;;;;;;0.50;0.50;;;;;;;-144.31;68.29;75230.09;5001419;28;20033;-72
2021/06/10 02:25:21;;;;;;;0.50;0.50;;;;;;;-144.31;68.30;75242.06;5003849;28;20081;-72
2021/06/10 02:27:47;;;;;;;0.40;0.40;;;;;;;-144.31;68.30;75252.06;4999677;28;20050;-72
2021/06/10 02:30:14;;;;;;;0.50;0.50;;;;;;;-144.31;68.32;75256.03;5004148;28;20046;-71
2021/06/10 02:32:40;;;;;;;0.50;0.50;;;;;;;-144.31;68.31;75252.06;5001333;28;20046;-72
2021/06/10 02:35:08;;;;;;;0.60;0.60;;;;;;;-144.31;68.33;75244.06;5005849;28;20527;-72
2021/06/10 02:37:37;;;;;;;0.40;0.40;;;;;;;-144.31;68.33;75250.06;5003668;28;20045;-72
2021/06/10 02:40:08;;;;;;;0.47;0.47;;;;;;;-144.31;68.36;75250.06;5004921;28;20060;-72
2021/06/10 02:42:36;;;;;;;0.50;0.50;;;;;;;-144.31;68.38;75264.03;4999817;28;20053;-72
2021/06/10 02:45:05;;;;;;;0.50;0.50;;;;;;;-144.31;68.41;75268.03;4984816;28;20038;-72
2021/06/10 02:47:32;;;;;;;0.57;0.57;;;;;;;-144.31;68.42;75276.03;5012311;28;20418;-72
2021/06/10 02:49:58;;;;;;;0.40;0.40;;;;;;;-144.31;68.41;75282.00;5002688;28;20053;-72
2021/06/10 02:52:26;;;;;;;0.50;0.50;;;;;;;-144.31;68.44;75292.00;5000446;28;20100;-72
2021/06/10 02:54:51;;;;;;;0.50;0.50;;;;;;;-144.31;68.43;75290.00;5003529;28;20069;-72
2021/06/10 02:57:20;;;;;;;0.50;0.50;;;;;;;-144.31;68.43;75296.00;5002804;28;20492;-72
2021/06/10 02:59:47;;;;;;;0.57;0.57;;;;;;;-144.31;68.45;75288.00;4999738;28;20046;-72
2021/06/10 03:02:13;;;;;;;;;;;;;;;-144.31;68.46;75286.00;5002450;28;20045;-72
2021/06/10 03:04:44;;;;;;;0.50;0.50;;;;;;;-144.31;68.47;75296.00;5002123;28;20524;-72
2021/06/10 03:07:13;;;;;;;0.50;0.50;;;;;;;-144.31;68.48;75294.00;5002962;28;20060;-73
2021/06/10 03:09:40;;;;;;;0.50;0.50;;;;;;;-144.31;68.49;75299.97;5000051;28;20041;-72
2021/06/10 03:12:08;;;;;;;0.40;0.40;;;;;;;-144.31;68.49;75296.00;5004224;28;20458;-72
2021/06/10 03:14:33;;;;;;;0.52;0.52;;;;;;;-144.31;68.50;75301.97;5003622;28;20084;-72
2021/06/10 03:17:00;;;;;;;0.50;0.50;;;;;;;-144.31;68.49;75296.00;5001800;28;20069;-72
2021/06/10 03:19:26;;;;;;;0.52;0.52;;;;;;;-144.31;68.51;75290.00;4999961;28;20115;-72
2021/06/10 03:21:51;;;;;;;0.50;0.50;;;;;;;-144.31;68.50;75290.00;5018999;28;20439;-72
2021/06/10 03:24:18;;;;;;;0.50;0.50;;;;;;;-144.31;68.51;75280.00;5003491;28;20042;-72
2021/06/10 03:26:44;;;;;;;0.43;0.43;;;;;;;-144.31;68.49;75270.03;4999588;28;20042;-71
2021/06/10 03:29:10;;;;;;;0.40;0.40;;;;;;;-144.31;68.48;75260.03;5020744;28;20050;-72
2021/06/10 03:31:36;;;;;;;0.60;0.60;;;;;;;-144.31;68.52;75268.03;5007760;28;20045;-73
2021/06/10 03:34:04;;;;;;;0.50;0.50;;;;;;;-144.31;68.49;75262.03;5008272;28;20093;-72
2021/06/10 03:36:30;;;;;;;0.50;0.50;;;;;;;-144.31;68.50;75266.03;5004796;28;20051;-72
2021/06/10 03:38:58;;;;;;;0.50;0.50;;;;;;;-144.31;68.52;75266.03;5006183;28;20130;-72
2021/06/10 03:41:25;;;;;;;0.60;0.60;;;;;;;-144.31;68.51;75264.03;5001789;28;20399;-72
2021/06/10 03:43:52;;;;;;;0.50;0.50;;;;;;;-144.31;68.52;75258.03;5003936;28;20104;-72
2021/06/10 03:46:19;;;;;;;0.60;0.60;;;;;;;-144.31;68.51;75258.03;5007008;28;20045;-72
2021/06/10 03:48:44;;;;;;;0.60;0.60;;;;;;;-144.31;68.51;75246.06;5003137;28;20472;-72
2021/06/10 03:51:15;;;;;;;0.50;0.50;;;;;;;-144.31;68.51;75242.06;5007547;28;20120;-72
2021/06/10 03:53:47;;;;;;;0.60;0.60;;;;;;;-144.31;68.51;75244.06;5023200;28;20041;-72
2021/06/10 03:56:13;;;;;;;0.60;0.60;;;;;;;-144.31;68.52;75242.06;5007384;28;20047;-71
2021/06/10 03:58:39;;;;;;;0.60;0.60;;;;;;;-144.31;68.52;75240.06;5008314;28;20077;-72
2021/06/10 04:01:05;;;;;;;0.60;0.60;;;;;;;-144.31;68.50;75226.09;5003720;28;20500;-72
2021/06/10 04:03:30;;;;;;;0.50;0.50;;;;;;;-144.31;68.49;75206.13;5007319;28;20053;-72
2021/06/10 04:05:59;;;;;;;0.60;0.60;;;;;;;-144.31;68.49;75198.13;5013503;28;20132;-72
2021/06/10 04:08:24;;;;;;;0.70;0.70;;;;;;;-144.31;68.47;75188.16;5002522;28;20504;-72
2021/06/10 04:10:50;;;;;;;4.10;1.63;;;;;;;-144.31;68.46;75172.16;5006011;28;20436;-72
2021/06/10 04:13:16;;;;;;;0.75;0.75;;;;;;;-144.31;68.50;75152.19;5004708;28;20050;-72
2021/06/10 04:15:41;;;;;;;0.77;0.77;;;;;;;-144.31;68.46;75140.22;5004101;28;20525;-72
2021/06/10 04:18:07;;;;;;;0.60;0.60;;;;;;;-144.31;68.43;75132.22;5006567;28;20476;-72
2021/06/10 04:20:33;;;;;;;0.70;0.70;;;;;;;-144.31;68.41;75118.25;5004903;28;20051;-72
2021/06/10 04:22:58;;;;;;;0.68;0.68;;;;;;;-144.31;68.44;75112.25;5003316;28;20549;-73
2021/06/10 04:25:24;;;;;;;0.60;0.60;;;;;;;-144.31;68.43;75106.25;5006740;28;20145;-72
2021/06/10 04:27:49;;;;;;;0.57;0.57;;;;;;;-144.31;68.42;75094.28;5007917;28;20500;-72
2021/06/10 04:30:17;;;;;;;0.60;0.60;;;;;;;-144.31;68.41;75092.28;5008569;28;20436;-72
2021/06/10 04:32:45;;;;;;;0.60;0.60;;;;;;;-144.31;68.41;75086.28;5003591;28;20050;-72
2021/06/10 04:35:11;;;;;;;0.45;0.45;;;;;;;-144.31;68.40;75074.31;5006761;28;20046;-73
2021/06/10 04:37:36;;;;;;;0.80;0.80;;;;;;;-144.31;68.38;75068.31;5002368;28;20530;-72
2021/06/10 04:40:03;;;;;;;0.73;0.70;;;;;;;-144.31;68.36;75060.31;5007164;28;20062;-72
2021/06/10 04:42:30;;;;;;;0.63;0.63;;;;;;;-144.31;68.35;75048.34;5001871;28;20790;-72
2021/06/10 04:44:55;;;;;;;0.50;0.50;;;;;;;-144.31;68.34;75038.34;5006424;28;20053;-72
2021/06/10 04:47:21;;;;;;;0.50;0.50;;;;;;;-144.31;68.33;75022.38;4999707;28;20049;-73
2021/06/10 04:49:46;;;;;;;0.55;0.55;;;;;;;-144.31;68.30;75010.41;5018406;28;20048;-72
2021/06/10 04:52:12;;;;;;;0.60;0.60;;;;;;;-144.31;68.29;74992.44;5007156;28;20056;-72
2021/06/10 04:54:37;;;;;;;0.60;0.60;;;;;;;-144.31;68.27;74980.44;5013449;28;20077;-72
2021/06/10 04:57:04;;;;;;;0.50;0.50;;;;;;;-144.31;68.26;74966.47;5005699;28;20038;-72
2021/06/10 04:59:30;;;;;;;0.50;0.50;;;;;;;-144.31;68.26;74950.50;5005019;28;20145;-72
2021/06/10 05:01:56;;;;;;;0.47;0.47;;;;;;;-144.31;68.25;74946.50;5000627;28;20107;-73
2021/06/10 05:04:22;;;;;;;0.40;0.40;;;;;;;-144.31;68.24;74924.53;5001115;28;20478;-73
2021/06/10 05:06:50;;;;;;;0.40;0.40;;;;;;;-144.31;68.23;74922.53;5004036;28;20512;-72
2021/06/10 05:09:16;;;;;;;2.50;0.98;;;;;;;-144.31;68.22;74922.53;5001602;28;20042;-72
2021/06/10 05:11:42;;;;;;;0.52;0.52;;;;;;;-144.31;68.22;74910.56;4994341;28;20108;-73
2021/06/10 05:14:07;;;;;;;0.50;0.50;;;;;;;-144.31;68.21;74888.59;5004369;28;20063;-73
2021/06/10 05:16:33;;;;;;;0.43;0.43;;;;;;;-144.31;68.23;74882.59;5005660;28;20046;-73
2021/06/10 05:18:58;;;;;;;1.42;0.57;;;;;;;-144.31;68.22;74874.59;5006490;28;20046;-73
2021/06/10 05:21:23;;;;;;;0.50;0.50;;;;;;;-144.31;68.13;74868.63;5006910;28;20405;-73
2021/06/10 05:23:49;;;;;;;0.70;0.70;;;;;;;-144.31;68.09;74862.63;5007421;28;20456;-72
2021/06/10 05:26:15;;;;;;;3.13;1.00;;;;;;;-144.31;68.08;74880.59;5021713;28;20053;-72
2021/06/10 05:28:40;;;;;;;0.90;0.68;;;;;;;-144.31;68.04;74868.63;5005102;28;20060;-72
2021/06/10 05:31:10;;;;;;;0.60;0.60;;;;;;;-144.31;68.00;74846.66;5007461;28;20042;-71
2021/06/10 05:33:36;;;;;;;0.65;0.65;;;;;;;-144.31;67.97;74828.69;5006124;28;20046;-71
2021/06/10 05:36:03;;;;;;;0.85;0.70;;;;;;;-144.31;67.93;74788.75;5020477;28;20046;-71
2021/06/10 05:38:28;;;;;;;1.95;0.77;;;;;;;-144.31;67.89;74794.72;5007835;28;20152;-71
2021/06/10 05:40:54;;;;;;;0.40;0.40;;;;;;;-144.31;67.87;74746.81;5001372;28;20084;-71
2021/06/10 05:43:22;;;;;;;0.30;0.30;;;;;;;-144.31;67.84;74738.81;5015739;28;20053;-70
2021/06/10 05:45:48;;;;;;;0.40;0.40;;;;;;;-144.31;67.83;74724.84;5002890;28;20115;-71
2021/06/10 05:48:14;;;;;;;0.40;0.40;;;;;;;-144.31;67.82;74724.84;4997905;28;20115;-71
2021/06/10 05:50:42;;;;;;;0.85;0.60;;;;;;;-144.31;67.82;74730.81;5005865;28;20053;-71
2021/06/10 05:53:08;;;;;;;0.50;0.50;;;;;;;-144.31;67.81;74726.84;5006557;28;20080;-71
2021/06/10 05:55:34;;;;;;;0.50;0.50;;;;;;;-144.31;67.81;74696.88;5006362;28;20103;-71
2021/06/10 05:57:59;;;;;;;1.85;0.80;;;;;;;-144.31;67.83;74718.84;5005768;28;20072;-72
2021/06/10 06:00:25;;;;;;;6.10;1.83;;;;;;;-144.31;67.81;74718.84;5001552;28;20061;-71
2021/06/10 06:02:50;;;;;;;1.35;0.82;;;;;;;-144.31;67.81;74680.91;5006604;28;20404;-72
2021/06/10 06:05:16;;;;;;;0.32;0.32;;;;;;;-144.31;67.81;74642.97;4999576;28;20150;-71
2021/06/10 06:07:41;;;;;;;0.60;0.57;;;;;;;-144.31;67.83;74638.97;4998522;28;20050;-71
2021/06/10 06:10:07;;;;;;;0.50;0.50;;;;;;;-144.31;67.83;74662.94;5001251;28;20053;-71
2021/06/10 06:12:33;;;;;;;0.50;0.50;;;;;;;-144.31;67.84;74632.97;4997309;28;20553;-71
2021/06/10 06:14:59;;;;;;;0.63;0.53;;;;;;;-144.31;67.86;74644.97;4996262;28;20038;-71
2021/06/10 06:17:24;;;;;;;0.60;0.55;;;;;;;-144.31;67.86;74615.00;4996853;28;20045;-71
2021/06/10 06:19:50;;;;;;;0.30;0.30;;;;;;;-144.31;67.90;74615.00;5002033;28;20415;-76
2021/06/10 06:22:15;;;;;;;0.30;0.30;;;;;;;-144.31;67.92;74597.03;5003332;28;20381;-71
2021/06/10 06:24:43;;;;;;;0.50;0.50;;;;;;;-144.31;67.97;74611.00;5002027;28;20050;-72
2021/06/10 06:27:09;;;;;;;0.40;0.40;;;;;;;-144.31;67.97;74549.13;5011807;28;20038;-70
2021/06/10 06:29:36;;;;;;;0.40;0.40;;;;;;;-144.31;68.02;74529.16;5004899;28;20060;-72
2021/06/10 06:32:04;;;;;;;0.30;0.30;;;;;;;-144.31;68.08;74487.22;5005610;28;20781;-73
2021/06/10 06:34:30;;;;;;;0.40;0.40;;;;;;;-144.31;68.20;74487.22;5002587;28;20092;-72
2021/06/10 06:36:55;;;;;;;0.40;0.40;;;;;;;-144.31;68.34;74469.25;5003643;28;20046;-72
2021/06/10 06:39:21;;;;;;;0.40;0.40;;;;;;;-144.31;68.54;74473.22;5000916;28;20042;-73
2021/06/10 06:41:46;;;;;;;0.50;0.50;;;;;;;-144.31;68.71;74431.31;5002250;28;20053;-72
2021/06/10 06:44:12;;;;;;;0.55;0.55;;;;;;;-144.31;68.97;74459.25;5004917;28;20072;-72
2021/06/10 06:46:43;;;;;;;0.30;0.30;;;;;;;-144.31;69.12;74427.31;5003238;28;20054;-73
2021/06/10 06:49:08;;;;;;;0.30;0.30;;;;;;;-144.31;69.28;74385.38;5005212;28;20578;-72
2021/06/10 06:51:34;;;;;;;0.20;0.20;;;;;;;-144.31;69.47;74369.41;5003612;28;20050;-72
2021/06/10 06:54:00;;;;;;;0.30;0.30;;;;;;;-144.31;69.84;74377.38;5004612;28;20046;-72
2021/06/10 06:56:25;;;;;;;0.40;0.40;;;;;;;-144.31;69.98;74347.44;5003588;28;20068;-72
2021/06/10 06:58:55;;;;;;;0.30;0.30;;;;;;;-144.31;70.03;74281.56;5002479;28;20039;-71
2021/06/10 07:01:21;;;;;;;0.30;0.30;;;;;;;-144.31;70.19;74239.63;5004249;28;20583;-73
2021/06/10 07:03:46;;;;;;;0.30;0.30;;;;;;;-144.31;70.81;74275.56;4999820;28;20060;-71
2021/06/10 07:06:14;;;;;;;0.30;0.30;;;;;;;-144.31;71.21;74251.59;5009333;28;20576;-72
2021/06/10 07:08:40;;;;;;;0.40;0.40;;;;;;;-144.31;71.61;74223.66;5008622;28;20077;-72
2021/06/10 07:11:06;;;;;;;0.30;0.30;;;;;;;-144.31;71.78;74183.72;5005604;28;20042;-71
2021/06/10 07:13:32;;;;;;;0.30;0.30;;;;;;;-144.31;72.19;74185.72;5007208;28;20053;-71
2021/06/10 07:15:57;;;;;;;0.30;0.30;;;;;;;-144.31;72.72;74159.75;5006830;28;20056;-72
2021/06/10 07:18:23;;;;;;;0.30;0.30;;;;;;;-144.31;73.46;74163.75;4998987;28;20049;-72
2021/06/10 07:20:48;;;;;;;0.40;0.40;;;;;;;-144.31;73.65;74113.84;5000370;28;20111;-72
2021/06/10 07:23:17;;;;;;;0.30;0.30;;;;;;;-144.31;74.37;74143.78;5004941;28;20074;-71
2021/06/10 07:25:42;;;;;;;0.30;0.30;;;;;;;-144.31;74.41;74083.88;5004197;28;20104;-71
2021/06/10 07:28:08;;;;;;;0.30;0.30;;;;;;;-144.31;74.78;74035.97;5004421;28;20084;-71
2021/06/10 07:30:34;;;;;;;0.22;0.22;;;;;;;-144.31;75.59;74031.97;5005125;28;20046;-72
2021/06/10 07:33:00;;;;;;;0.25;0.25;;;;;;;-144.31;75.07;73938.13;5008996;28;20054;-71
2021/06/10 07:35:26;;;;;;;0.30;0.30;;;;;;;-144.31;77.41;73980.06;5007008;28;20048;-71
2021/06/10 07:37:53;;;;;;;0.30;0.30;;;;;;;-144.31;77.30;73900.19;5023810;28;20416;-72
2021/06/10 07:40:21;;;;;;;0.30;0.30;;;;;;;-144.31;79.68;73944.13;5009755;28;20041;-71
2021/06/10 07:42:46;;;;;;;0.30;0.30;;;;;;;-144.31;81.18;73818.34;5002726;28;20065;-71
2021/06/10 07:45:12;;;;;;;0.25;0.20;;;;;;;-144.31;88.21;73872.25;5009565;28;20079;-71
2021/06/10 07:47:38;;;;;;;0.47;0.30;;;;;;;-144.31;90.50;73856.28;5021662;28;20042;-70
2021/06/10 07:50:05;;;;;;;0.25;0.25;;;;;;;-144.31;88.05;73848.28;5009171;28;20053;-74
2021/06/10 07:52:31;;;;;;;;;;;;;;;-144.31;85.35;73918.16;5005432;28;20045;-73
2021/06/10 07:54:59;;;;;;;0.20;0.20;;;;;;;-144.31;82.15;73884.22;4994502;28;19920;-73
2021/06/10 07:57:25;;;;;;;0.30;0.30;;;;;;;-144.31;81.56;73908.19;5020533;28;20038;-74
2021/06/10 07:59:50;;;;;;;0.20;0.20;;;;;;;-144.31;82.56;73772.44;5017084;28;20117;-75
2021/06/10 08:02:16;;;;;;;0.20;0.20;;;;;;;-144.31;85.38;73804.38;5018616;28;20055;-73
2021/06/10 08:04:41;;;;;;;0.22;0.22;;;;;;;-144.31;92.56;73804.38;5007105;28;20117;-74
2021/06/10 08:07:08;;;;;;;0.20;0.20;;;;;;;-144.31;95.05;73750.47;5012399;28;20061;-74
2021/06/10 08:09:34;;;;;;;0.20;0.20;;;;;;;-144.31;100.00;73712.53;5004585;28;20045;-70
2021/06/10 08:12:00;;;;;;;0.20;0.20;;;;;;;-144.31;100.00;73762.44;5004929;28;20420;-70
2021/06/10 08:14:26;;;;;;;0.20;0.20;;;;;;;-144.31;100.00;73752.47;5005976;28;20110;-70
2021/06/10 08:16:54;;;;;;;0.22;0.22;;;;;;;-144.31;100.00;73778.41;5005289;28;20586;-71
2021/06/10 08:19:20;;;;;;;0.20;0.20;;;;;;;-144.31;100.00;73880.25;5006511;28;20080;-72
2021/06/10 08:21:46;;;;;;;0.17;0.17;;;;;;;-144.31;100.00;73746.47;5001506;28;20046;-71
2021/06/10 08:24:11;;;;;;;0.30;0.30;;;;;;;-144.31;100.00;73752.47;5003335;28;20105;-72
2021/06/10 08:26:38;;;;;;;0.20;0.20;;;;;;;-144.31;100.00;73662.63;5001525;28;20192;-71
2021/06/10 08:29:06;;;;;;;0.10;0.10;;;;;;;-144.31;100.00;73668.63;5004223;28;20107;-72
2021/06/10 08:31:31;;;;;;;0.20;0.20;;;;;;;-144.31;100.00;73816.34;5004726;28;20116;-71
2021/06/10 08:33:57;;;;;;;0.20;0.20;;;;;;;-144.31;100.00;73728.50;5005809;28;20520;-72
2021/06/10 08:36:23;;;;;;;0.20;0.20;;;;;;;-144.31;100.00;73662.63;5002021;28;20048;-72
2021/06/10 08:38:50;;;;;;;0.20;0.17;;;;;;;-144.31;100.00;73590.75;5013145;28;20073;-72
2021/06/10 08:41:15;;;;;;;0.10;0.10;;;;;;;-144.31;100.00;73702.56;4998816;28;20046;-72
2021/06/10 08:43:45;;;;;;;0.20;0.20;;;;;;;-144.31;100.00;73616.72;5004725;28;20053;-72
2021/06/10 08:46:12;;;;;;;0.20;0.20;;;;;;;-144.31;100.00;73662.63;5002830;28;20060;-72
2021/06/10 08:48:47;;;;;;;0.20;0.20;;;;;;;-144.31;100.00;73640.66;5004147;28;20148;-73
2021/06/10 08:51:13;;;;;;;0.20;0.20;;;;;;;-144.31;100.00;73578.78;5001651;28;20057;-72
2021/06/10 08:53:39;;;;;;;0.20;0.20;;;;;;;-144.31;100.00;73580.78;5001383;28;20775;-72
2021/06/10 08:56:05;;;;;;;0.20;0.20;;;;;;;-144.31;100.00;73606.72;5005846;28;20048;-72
2021/06/10 08:58:33;;;;;;;0.20;0.20;;;;;;;-144.31;100.00;73536.84;5001331;28;20038;-71
2021/06/10 09:01:00;;;;;;;0.10;0.10;;;;;;;-144.31;100.00;73748.47;5004505;28;20096;-71
2021/06/10 09:03:32;;;;;;;0.20;0.20;;;;;;;-144.31;100.00;73626.69;5003522;28;20048;-71
2021/06/10 09:06:07;;;;;;;0.20;0.20;;;;;;;-144.31;100.00;73596.75;5019582;28;20530;-70
2021/06/10 09:08:37;;;;;;;0.10;0.10;;;;;;;-144.31;100.00;73540.84;5003150;28;20042;-72
2021/06/10 09:11:25;;;;;;;0.20;0.20;;;;;;;-144.31;100.00;73570.78;5002992;28;20116;-72
2021/06/10 09:13:55;;;;;;;0.25;0.20;;;;;;;-144.31;100.00;73536.84;5001257;28;20038;-71
2021/06/10 09:16:20;;;;;;;0.20;0.20;;;;;;;-144.31;100.00;73520.88;5000435;28;20058;-72
2021/06/10 09:19:01;;;;;;;0.10;0.10;;;;;;;-144.31;100.00;73512.91;5005949;28;20042;-73
2021/06/10 09:21:30;;;;;;;0.20;0.20;;;;;;;-144.31;100.00;73415.09;5001048;28;20096;-72
2021/06/10 09:23:56;;;;;;;0.20;0.20;;;;;;;-144.31;100.00;73433.06;5004070;28;20139;-76
2021/06/10 09:26:22;;;;;;;0.20;0.20;;;;;;;-144.31;100.00;73397.13;5004018;28;20046;-71
2021/06/10 09:28:52;;;;;;;0.20;0.20;;;;;;;-144.31;100.00;73391.13;4995167;28;20299;-74
2021/06/10 09:31:30;;;;;;;0.20;0.20;;;;;;;-144.31;100.00;73347.22;4991108;28;20049;-72
2021/06/10 09:33:56;;;;;;;0.10;0.10;;;;;;;-144.31;100.00;73341.22;4991039;28;20049;-72
2021/06/10 09:36:24;;;;;;;0.20;0.20;;;;;;;-144.31;100.00;73289.31;5000705;28;20048;-71
2021/06/10 09:39:06;;;;;;;0.40;0.40;;;;;;;-144.31;100.00;73355.19;5015359;28;20160;-71
2021/06/10 09:41:32;;;;;;;0.10;0.10;;;;;;;-144.31;100.00;73317.28;5003523;28;20145;-71
2021/06/10 09:43:58;;;;;;;0.20;0.20;;;;;;;-144.31;100.00;73287.31;5011072;28;20136;-71
2021/06/10 09:46:26;;;;;;;0.20;0.20;;;;;;;-144.31;100.00;73369.19;5000902;28;20515;-71
2021/06/10 09:49:06;;;;;;;0.20;0.20;;;;;;;-144.31;100.00;73257.38;4993926;28;20042;-73
2021/06/10 09:51:32;;;;;;;0.17;0.17;;;;;;;-144.31;100.00;73245.41;4993989;28;20447;-73
2021/06/10 09:53:59;;;;;;;0.20;0.20;;;;;;;-144.31;100.00;73285.34;4996863;28;20038;-72
2021/06/10 09:56:25;;;;;;;0.10;0.10;;;;;;;-144.31;100.00;73233.44;4995097;28;20045;-71
2021/06/10 09:58:55;;;;;;;0.20;0.20;;;;;;;-144.31;100.00;73227.44;5001262;28;20048;-72
2021/06/10 10:01:23;;;;;;;0.10;0.10;;;;;;;-144.31;100.00;73231.44;4993025;28;20087;-69
2021/06/10 10:03:51;;;;;;;0.20;0.20;;;;;;;-144.31;100.00;73281.34;5000827;28;20041;-72
2021/06/10 10:06:25;;;;;;;0.10;0.10;;;;;;;-144.31;100.00;73217.47;4995799;28;20124;-71
2021/06/10 10:08:53;;;;;;;0.15;0.15;;;;;;;-144.31;100.00;73283.34;4995269;28;20043;-72
2021/06/10 10:11:20;;;;;;;0.20;0.20;;;;;;;-144.31;100.00;73235.44;5000375;28;20091;-72
2021/06/10 10:13:50;;;;;;;0.10;0.10;;;;;;;-144.31;100.00;73265.38;4998739;28;20045;-72
2021/06/10 10:16:32;;;;;;;0.35;0.20;;;;;;;-144.31;100.00;73217.47;5002691;28;20042;-72
2021/06/10 10:19:02;;;;;;;0.10;0.10;;;;;;;-144.31;100.00;73183.53;4996777;28;20600;-72
2021/06/10 10:21:30;;;;;;;0.17;0.17;;;;;;;-144.31;100.00;73171.56;4995124;28;20329;-72
2021/06/10 10:24:01;;;;;;;0.10;0.10;;;;;;;-144.31;100.00;73233.44;5001992;28;20065;-71
2021/06/10 10:26:30;;;;;;;0.15;0.15;;;;;;;-144.31;100.00;73518.91;4988430;28;20472;-72
2021/06/10 10:29:00;;;;;;;0.32;0.20;;;;;;;-144.31;100.00;73335.25;4997554;28;20041;-71
2021/06/10 10:31:27;;;;;;;0.10;0.10;;;;;;;-144.31;100.00;73173.56;4997809;28;20574;-70
2021/06/10 10:33:55;;;;;;;0.10;0.10;;;;;;;-144.31;100.00;73089.72;4993566;28;20053;-70
2021/06/10 10:36:33;;;;;;;0.10;0.10;;;;;;;-144.31;100.00;73169.56;4997731;28;20099;-71
2021/06/10 10:39:07;;;;;;;0.10;0.10;;;;;;;-144.31;100.00;73101.69;4996736;28;20358;-70
2021/06/10 10:41:47;;;;;;;0.13;0.13;;;;;;;-144.31;100.00;73159.56;4991676;28;20046;-70
2021/06/10 10:44:25;;;;;;;0.10;0.10;;;;;;;-144.31;100.00;73079.72;5001867;28;20422;-72
2021/06/10 10:47:03;;;;;;;0.25;0.25;;;;;;;-144.31;100.00;73067.75;4997237;28;20050;-71
2021/06/10 10:49:37;;;;;;;0.10;0.10;;;;;;;-144.31;100.00;73163.56;4994373;28;20072;-72
2021/06/10 10:52:18;;;;;;;0.10;0.10;;;;;;;-144.31;100.00;73043.81;5000950;28;20046;-71
2021/06/10 10:54:51;;;;;;;0.20;0.15;;;;;;;-144.31;100.00;72973.94;5000882;28;20046;-71
2021/06/10 10:57:38;;;;;;;0.10;0.10;;;;;;;-144.31;100.00;72926.03;5013512;28;20068;-71
2021/06/10 11:00:09;;;;;;;0.38;0.20;;;;;;;-144.31;100.00;72932.03;4994099;28;20044;-71
2021/06/10 11:02:41;;;;;;;0.10;0.10;;;;;;;-144.31;100.00;72904.09;5002783;28;20052;-71
2021/06/10 11:05:10;;;;;;;0.15;0.10;;;;;;;-144.31;100.00;72872.16;5002832;28;20034;-72
2021/06/10 11:07:44;;;;;;;0.20;0.20;;;;;;;-144.31;100.00;72830.22;5017204;28;20092;-72
2021/06/10 11:10:15;;;;;;;0.13;0.13;;;;;;;-144.31;100.00;72864.16;5003372;28;20038;-73
2021/06/10 11:12:41;;;;;;;0.17;0.17;;;;;;;-144.31;100.00;72808.28;5001672;28;20054;-69
2021/06/10 11:15:09;;;;;;;0.20;0.20;;;;;;;-144.31;100.00;72838.22;4983647;28;20113;-71
2021/06/10 11:17:46;;;;;;;0.30;0.30;;;;;;;-144.31;100.00;72876.13;4999579;28;20046;-71
2021/06/10 11:20:16;;;;;;;0.10;0.10;;;;;;;-144.31;100.00;72828.22;4993053;28;20045;-71